Time;durP1;ratioP1;P1;durP2;ratioP2;P2;SDS_P1;SDS_P2;PMS_P1;PMS_P2;Temp;Humidity;BMP_temperature;BMP_pressure;BME280_temperature;BME280_humidity;BME280_pressure;Samples;Min_cycle;Max_cycle;Signal;HPM_P1;HPM_P2
2022/04/29 11:33:23;;;;;;;3.95;3.08;;;;;;;;;;5443599;23;20078;-79
2022/04/29 11:35:53;;;;;;;3.88;3.47;;;;;;;;;;4938999;29;20091;-77
2022/04/29 11:38:19;;;;;;;4.53;3.92;;;;;;;;;;4938714;29;20474;-78
2022/04/29 11:40:44;;;;;;;3.97;3.58;;;;;;;;;;4939217;29;20107;-77
2022/04/29 11:43:10;;;;;;;4.18;3.78;;;;;;;;;;4938678;29;20063;-77
2022/04/29 16:38:27;;;;;;;4.45;3.10;;;;;;;;;;4905511;29;20051;-82
2022/04/29 16:40:53;;;;;;;4.00;3.35;;;;;;;;;;4899935;29;20115;-80
2022/04/29 16:43:19;;;;;;;4.20;3.30;;;;;;;;;;4899816;29;20053;-81
2022/04/29 16:45:46;;;;;;;5.45;3.40;;;;;;;;;;4899232;29;20040;-80
2022/04/29 16:48:13;;;;;;;6.35;3.38;;;;;;;;;;4899453;29;20039;-82
2022/04/29 16:50:39;;;;;;;5.05;3.60;;;;;;;;;;4899812;29;20034;-85
2022/04/29 16:53:08;;;;;;;4.65;3.40;;;;;;;;;;4898414;29;20368;-81
2022/04/29 16:55:34;;;;;;;4.93;4.07;;;;;;;;;;4899206;29;20104;-80
2022/04/29 17:00:43;;;;;;;5.65;3.33;;;;;;;;;;4897300;29;20032;-82
2022/04/29 17:03:13;;;;;;;4.95;3.67;;;;;;;;;;4899108;29;20029;-81
2022/04/29 17:05:45;;;;;;;6.80;3.40;;;;;;;;;;4896586;29;20095;-80
2022/04/29 17:08:14;;;;;;;5.85;3.47;;;;;;;;;;4898859;29;20349;-82
2022/04/29 17:10:40;;;;;;;4.10;3.20;;;;;;;;;;4896444;29;20025;-82
2022/04/29 17:13:06;;;;;;;3.53;3.22;;;;;;;;;;4899112;29;20036;-83
2022/04/29 17:15:33;;;;;;;4.50;3.30;;;;;;;;;;4899411;29;20039;-83
2022/04/29 17:18:00;;;;;;;5.53;3.92;;;;;;;;;;4899458;29;20021;-82
2022/04/29 17:20:26;;;;;;;7.30;3.83;;;;;;;;;;4899150;29;20028;-83
2022/04/29 17:22:52;;;;;;;4.18;3.60;;;;;;;;;;4899135;29;20364;-83
2022/04/29 17:25:18;;;;;;;3.50;3.20;;;;;;;;;;4913409;29;20064;-83
2022/04/29 17:27:43;;;;;;;5.68;4.10;;;;;;;;;;4899137;29;20099;-82
2022/04/29 17:30:09;;;;;;;5.30;3.75;;;;;;;;;;4898449;29;20024;-82
2022/04/29 17:32:34;;;;;;;4.82;4.03;;;;;;;;;;4899197;29;20029;-83
2022/04/29 17:35:00;;;;;;;9.45;3.95;;;;;;;;;;4898773;29;20029;-83
2022/04/29 17:37:25;;;;;;;7.95;5.72;;;;;;;;;;4898695;29;20028;-83
2022/04/29 17:42:35;;;;;;;6.80;3.80;;;;;;;;;;4898703;29;20391;-84
2022/04/29 17:45:03;;;;;;;5.72;4.22;;;;;;;;;;4898668;29;20021;-83
2022/04/29 17:47:29;;;;;;;11.27;4.22;;;;;;;;;;4898972;29;20128;-84
2022/04/29 17:52:39;;;;;;;7.43;5.68;;;;;;;;;;4899022;29;20123;-83
2022/04/29 17:55:06;;;;;;;8.52;7.43;;;;;;;;;;4898604;29;20035;-83
2022/04/29 17:57:32;;;;;;;11.18;7.55;;;;;;;;;;4898750;29;20555;-82
2022/04/29 17:59:58;;;;;;;5.78;5.18;;;;;;;;;;4898544;29;20072;-84
2022/04/29 18:02:23;;;;;;;5.95;4.85;;;;;;;;;;4898392;29;20024;-82
2022/04/29 18:04:49;;;;;;;6.70;4.57;;;;;;;;;;4897998;29;20089;-81
2022/04/29 18:07:14;;;;;;;6.03;5.30;;;;;;;;;;4898339;29;20024;-82
2022/04/29 18:09:41;;;;;;;4.55;4.15;;;;;;;;;;4898460;29;20036;-82
2022/04/29 18:12:07;;;;;;;4.28;3.88;;;;;;;;;;4898395;29;20031;-82
2022/04/29 18:14:32;;;;;;;11.73;9.00;;;;;;;;;;4898360;29;20032;-81
2022/04/29 18:16:58;;;;;;;7.85;3.72;;;;;;;;;;4897713;29;20444;-82
2022/04/29 18:19:23;;;;;;;6.32;4.35;;;;;;;;;;4897864;29;20032;-83
2022/04/29 18:21:49;;;;;;;5.93;5.00;;;;;;;;;;4898240;29;20111;-83
2022/04/29 18:24:15;;;;;;;4.68;3.80;;;;;;;;;;4897561;29;20499;-80
2022/04/29 18:26:41;;;;;;;4.47;3.72;;;;;;;;;;4897673;29;20048;-81
2022/04/29 18:29:07;;;;;;;4.22;3.80;;;;;;;;;;4898168;29;20052;-80
2022/04/29 18:31:33;;;;;;;5.25;4.20;;;;;;;;;;4898251;29;20029;-82
2022/04/29 18:33:58;;;;;;;4.50;3.53;;;;;;;;;;4898582;29;20033;-81
2022/04/29 18:36:24;;;;;;;5.05;3.97;;;;;;;;;;4898506;29;20477;-81
2022/04/29 18:38:49;;;;;;;6.82;4.30;;;;;;;;;;4897681;29;20059;-82
2022/04/29 18:41:15;;;;;;;6.68;4.80;;;;;;;;;;4899016;29;20036;-81
2022/04/29 18:43:41;;;;;;;9.13;4.70;;;;;;;;;;4902119;29;20025;-83
2022/04/29 18:46:06;;;;;;;4.65;4.25;;;;;;;;;;4901856;29;20448;-83
2022/04/29 18:48:32;;;;;;;6.10;4.13;;;;;;;;;;4902073;29;20144;-81
2022/04/29 18:50:57;;;;;;;5.53;4.80;;;;;;;;;;4902270;29;20035;-86
2022/04/29 18:53:23;;;;;;;4.57;4.00;;;;;;;;;;4902178;29;20035;-86
2022/04/29 18:55:48;;;;;;;5.95;4.70;;;;;;;;;;4902093;29;20039;-87
2022/04/29 18:58:14;;;;;;;4.45;4.00;;;;;;;;;;4901778;29;20076;-85
2022/04/29 19:00:40;;;;;;;7.40;4.50;;;;;;;;;;4901749;29;20032;-88
2022/04/29 19:03:06;;;;;;;4.25;3.85;;;;;;;;;;4901452;29;20468;-84
2022/04/29 19:05:31;;;;;;;9.13;4.15;;;;;;;;;;4901539;29;20028;-85
2022/04/29 19:07:57;;;;;;;6.05;3.97;;;;;;;;;;4901774;29;20036;-86
2022/04/29 19:10:24;;;;;;;5.55;4.90;;;;;;;;;;4901474;29;20116;-87
2022/04/29 19:12:49;;;;;;;5.22;4.20;;;;;;;;;;4901645;29;20033;-86
2022/04/29 19:15:16;;;;;;;5.53;4.68;;;;;;;;;;4915872;29;20031;-87
2022/04/29 19:17:42;;;;;;;8.23;4.63;;;;;;;;;;4901396;29;20503;-84
2022/04/29 19:20:07;;;;;;;4.80;4.28;;;;;;;;;;4901727;29;20161;-87
2022/04/29 19:22:33;;;;;;;6.00;4.25;;;;;;;;;;4901590;29;20029;-84
2022/04/29 19:24:58;;;;;;;4.40;4.00;;;;;;;;;;4901458;29;20037;-84
2022/04/29 19:27:24;;;;;;;5.38;4.57;;;;;;;;;;4900018;29;20025;-88
2022/04/29 19:29:49;;;;;;;5.25;4.40;;;;;;;;;;4901266;29;20454;-86
2022/04/29 19:32:16;;;;;;;5.65;4.10;;;;;;;;;;4901470;29;20034;-87
2022/04/29 19:34:41;;;;;;;5.15;4.60;;;;;;;;;;4901116;29;20115;-87
2022/04/29 19:37:07;;;;;;;4.93;4.40;;;;;;;;;;4901373;29;20112;-87
2022/04/29 19:39:33;;;;;;;5.78;4.15;;;;;;;;;;4899515;29;20189;-87
2022/04/29 19:41:59;;;;;;;4.72;3.88;;;;;;;;;;4901251;29;20454;-86
2022/04/29 19:44:24;;;;;;;9.07;6.75;;;;;;;;;;4900915;29;20034;-87
2022/04/29 19:46:50;;;;;;;5.97;4.60;;;;;;;;;;4900949;29;20025;-86
2022/04/29 19:49:16;;;;;;;6.30;3.95;;;;;;;;;;4904063;29;20028;-87
2022/04/29 19:51:43;;;;;;;5.97;4.32;;;;;;;;;;4901008;29;20025;-86
2022/04/29 19:54:10;;;;;;;4.53;4.13;;;;;;;;;;4900095;29;20064;-84
2022/04/29 19:56:35;;;;;;;9.57;4.65;;;;;;;;;;4900787;29;20044;-84
2022/04/29 19:59:13;;;;;;;5.18;3.90;;;;;;;;;;4900751;29;20029;-83
2022/04/29 20:04:25;;;;;;;6.45;4.07;;;;;;;;;;4900628;29;20066;-84
2022/04/29 20:06:51;;;;;;;5.25;4.72;;;;;;;;;;4900701;29;20036;-85
2022/04/29 20:09:19;;;;;;;6.78;4.60;;;;;;;;;;4900561;29;20024;-85
2022/04/29 20:11:45;;;;;;;5.15;4.72;;;;;;;;;;4900697;29;20383;-85
2022/04/29 20:14:12;;;;;;;8.30;5.45;;;;;;;;;;4901206;29;20475;-85
2022/04/29 20:16:37;;;;;;;7.03;4.70;;;;;;;;;;4900620;29;20032;-86
2022/04/29 20:19:04;;;;;;;8.80;4.70;;;;;;;;;;4900852;29;20025;-84
2022/04/29 20:21:31;;;;;;;7.07;5.10;;;;;;;;;;4898994;29;20028;-84
2022/04/29 20:23:57;;;;;;;8.90;5.03;;;;;;;;;;4900465;29;20435;-85
2022/04/29 20:26:23;;;;;;;5.70;5.13;;;;;;;;;;4900457;29;20040;-84
2022/04/29 20:28:49;;;;;;;4.97;4.00;;;;;;;;;;4901020;29;20029;-85
2022/04/29 20:31:14;;;;;;;6.50;5.18;;;;;;;;;;4901285;29;20107;-84
2022/04/29 20:33:40;;;;;;;6.05;4.80;;;;;;;;;;4901299;29;20028;-84
2022/04/29 20:36:06;;;;;;;5.63;5.13;;;;;;;;;;4901039;29;20128;-86
2022/04/29 20:38:32;;;;;;;6.00;5.50;;;;;;;;;;4900652;29;20507;-85
2022/04/29 20:43:57;;;;;;;4.68;4.18;;;;;;;;;;4900888;29;20387;-86
2022/04/29 20:46:24;;;;;;;7.50;4.80;;;;;;;;;;4914369;29;20035;-86
2022/04/29 20:48:50;;;;;;;6.57;5.20;;;;;;;;;;4881336;29;20108;-85
2022/04/29 20:51:15;;;;;;;8.18;5.10;;;;;;;;;;4881257;29;20524;-86
2022/04/29 20:53:41;;;;;;;7.18;4.97;;;;;;;;;;4881512;29;20105;-85
2022/04/29 20:56:07;;;;;;;5.80;4.85;;;;;;;;;;4881377;29;20120;-86
2022/04/29 20:58:33;;;;;;;6.75;5.15;;;;;;;;;;4881561;29;20073;-87
2022/04/29 21:00:59;;;;;;;5.65;4.47;;;;;;;;;;4880885;29;20028;-86
2022/04/29 21:03:25;;;;;;;7.65;5.10;;;;;;;;;;4881151;29;20516;-86
2022/04/29 21:05:51;;;;;;;6.88;4.93;;;;;;;;;;4879830;29;20029;-85
2022/04/29 21:08:16;;;;;;;5.18;4.70;;;;;;;;;;4880854;29;20101;-85
2022/04/29 21:10:44;;;;;;;5.28;4.78;;;;;;;;;;4881052;29;20033;-86
2022/04/29 21:13:10;;;;;;;5.30;4.72;;;;;;;;;;4881007;29;20037;-85
2022/04/29 21:15:36;;;;;;;9.10;4.90;;;;;;;;;;4880736;29;20089;-84
2022/04/29 21:18:02;;;;;;;5.82;4.82;;;;;;;;;;4880628;29;20025;-85
2022/04/29 21:20:27;;;;;;;5.45;4.72;;;;;;;;;;4880690;29;20029;-84
2022/04/29 21:22:53;;;;;;;6.25;4.70;;;;;;;;;;4880719;29;20374;-84
2022/04/29 21:25:19;;;;;;;6.50;5.22;;;;;;;;;;4880527;29;20045;-84
2022/04/29 21:27:45;;;;;;;5.55;4.88;;;;;;;;;;4880415;29;20036;-84
2022/04/29 21:32:55;;;;;;;7.20;5.20;;;;;;;;;;4880669;29;20035;-86
2022/04/29 21:35:21;;;;;;;7.50;5.28;;;;;;;;;;4880154;29;20104;-85
2022/04/29 21:37:47;;;;;;;6.70;5.22;;;;;;;;;;4880151;29;20085;-85
2022/04/29 21:40:13;;;;;;;5.97;5.00;;;;;;;;;;4879102;29;20033;-87
2022/04/29 21:42:40;;;;;;;5.88;4.82;;;;;;;;;;4880242;29;20029;-87
2022/04/29 21:45:06;;;;;;;5.50;5.00;;;;;;;;;;4879894;29;20556;-87
